Terminal Aerodrome Forecast
Issued by NWS

Home | Current Version | Previous Version | Text Only | Print | Product List | Glossary On
Versions: 1 2 3 4 5 6 7 8 9 10 11 12
000
FTUS43 KFGF 271100
TAFDVL
TAF
KDVL 271140Z 2712/2812 22006KT P6SM OVC060
     FM271600 25007KT P6SM OVC012
     FM272000 29007KT P6SM BKN015
      AMD LTD TO CLD VIS AND WIND=

USA.gov is the U.S. government's official web portal to all federal, state and local government web resources and services.